createdAt,value
2018-11-05T17:48:33.683Z,22.43
2018-11-05T17:49:42.610Z,22.39
2018-11-05T17:50:52.393Z,22.37
2018-11-05T17:52:01.940Z,22.36
2018-11-05T17:53:11.431Z,22.39
2018-11-05T17:54:20.860Z,22.39
2018-11-05T17:55:30.527Z,22.42
2018-11-05T17:56:39.741Z,22.4
2018-11-05T17:57:49.239Z,22.37
2018-11-05T17:58:58.152Z,22.42
2018-11-05T18:00:07.608Z,22.42
2018-11-05T18:01:16.762Z,22.37
2018-11-05T18:02:25.432Z,22.35
2018-11-05T18:03:34.597Z,22.42
2018-11-05T18:04:44.595Z,22.4
2018-11-05T18:05:54.330Z,22.42
2018-11-05T18:07:04.048Z,22.4
2018-11-05T18:08:13.196Z,22.46
2018-11-05T18:09:23.165Z,22.37
2018-11-05T18:10:32.794Z,22.49
2018-11-05T18:11:41.712Z,22.45
2018-11-05T18:12:51.433Z,22.4
2018-11-05T18:14:00.628Z,22.4
2018-11-05T18:15:09.805Z,22.4
2018-11-05T18:16:19.509Z,22.49
2018-11-05T18:17:29.436Z,22.45
2018-11-05T18:18:39.112Z,22.46
2018-11-05T18:19:48.801Z,22.45
2018-11-05T18:20:58.754Z,22.47
2018-11-05T18:22:08.160Z,22.45
2018-11-05T18:23:17.635Z,22.49
2018-11-05T18:24:27.158Z,22.39
2018-11-05T18:25:36.801Z,22.54
2018-11-05T18:26:46.220Z,22.51
2018-11-05T18:27:55.912Z,22.67
2018-11-05T18:29:05.592Z,22.58
2018-11-05T18:30:15.044Z,22.65
2018-11-05T18:31:25.153Z,22.79
2018-11-05T18:32:34.253Z,22.8
2018-11-05T18:33:44.008Z,22.9
2018-11-05T18:34:53.448Z,22.95
2018-11-05T18:36:03.416Z,22.92
2018-11-05T18:37:13.110Z,23.02
2018-11-05T18:38:23.240Z,23.09
2018-11-05T18:39:32.668Z,23.07
2018-11-05T18:40:41.828Z,23.19
2018-11-05T18:41:51.517Z,23.15
2018-11-05T18:43:01.384Z,23.25
2018-11-05T18:44:11.166Z,23.43
2018-11-05T18:45:20.510Z,23.42
2018-11-05T18:46:30.098Z,23.48
2018-11-05T18:47:39.508Z,23.5
2018-11-05T18:48:49.197Z,23.58
2018-11-05T18:49:58.651Z,23.6
2018-11-05T18:51:07.849Z,23.66
2018-11-05T18:52:17.529Z,23.75
2018-11-05T18:53:26.703Z,23.69
2018-11-05T18:54:36.125Z,23.78
2018-11-05T18:55:45.553Z,23.83
2018-11-05T18:56:55.487Z,23.83
2018-11-05T18:58:05.488Z,23.83
2018-11-05T18:59:15.152Z,23.88
2018-11-05T19:00:24.317Z,23.88
2018-11-05T19:01:33.752Z,24
2018-11-05T19:02:44.151Z,23.85
2018-11-05T19:03:54.827Z,23.95
2018-11-05T19:05:03.994Z,23.93
2018-11-05T19:06:13.448Z,23.9
2018-11-05T19:07:23.131Z,23.91
2018-11-05T19:08:32.277Z,23.85
2018-11-05T19:09:42.396Z,23.9
2018-11-05T19:10:51.819Z,24.02
2018-11-05T19:12:01.254Z,23.91
2018-11-05T19:13:10.181Z,23.93
2018-11-05T19:14:19.593Z,23.91
2018-11-05T19:15:28.769Z,23.95
2018-11-05T19:16:38.214Z,23.9
2018-11-05T19:17:47.907Z,23.88
2018-11-05T19:18:57.587Z,24.02
2018-11-05T19:20:06.787Z,23.93
2018-11-05T19:21:15.960Z,23.83
2018-11-05T19:22:26.073Z,23.85
2018-11-05T19:23:35.967Z,23.9
2018-11-05T19:24:45.552Z,23.87
2018-11-05T19:25:54.970Z,23.87
2018-11-05T19:27:04.401Z,23.78
2018-11-05T19:28:14.099Z,23.79
2018-11-05T19:29:23.832Z,23.76
2018-11-05T19:30:33.353Z,23.79
2018-11-05T19:31:43.342Z,23.83
2018-11-05T19:32:52.515Z,23.72
2018-11-05T19:34:02.738Z,23.65
2018-11-05T19:35:12.460Z,23.68
2018-11-05T19:36:22.061Z,23.65
2018-11-05T19:37:31.211Z,23.69
2018-11-05T19:38:40.359Z,23.75
2018-11-05T19:39:49.784Z,23.7
2018-11-05T19:40:59.766Z,23.73
2018-11-05T19:42:09.268Z,23.7
2018-11-05T19:43:18.788Z,23.72
2018-11-05T19:44:28.969Z,23.61
2018-11-05T19:45:38.647Z,23.65
2018-11-05T19:46:47.812Z,23.66
2018-11-05T19:47:57.233Z,23.6
2018-11-05T19:49:06.123Z,23.61
2018-11-05T19:50:15.289Z,23.6
2018-11-05T19:51:24.722Z,23.6
2018-11-05T19:52:33.887Z,23.61
2018-11-05T19:53:43.558Z,23.6
2018-11-05T19:54:52.740Z,23.6
2018-11-05T19:56:02.217Z,23.54
2018-11-05T19:57:12.163Z,23.54
2018-11-05T19:58:21.327Z,23.54
2018-11-05T19:59:30.224Z,23.48
2018-11-05T20:00:39.495Z,23.47
2018-11-05T20:01:49.314Z,23.54
2018-11-05T20:02:59.336Z,23.48
2018-11-05T20:04:09.074Z,23.48
2018-11-05T20:05:19.124Z,23.55
2018-11-05T20:06:29.185Z,23.5
2018-11-05T20:07:38.864Z,23.55
2018-11-05T20:08:47.798Z,23.6
2018-11-05T20:09:57.217Z,23.58
2018-11-05T20:11:06.372Z,23.57
2018-11-05T20:12:15.791Z,23.63
2018-11-05T20:13:25.265Z,23.65
2018-11-05T20:14:35.221Z,23.65
2018-11-05T20:15:45.048Z,23.7
2018-11-05T20:16:54.665Z,23.84
2018-11-05T20:18:04.483Z,23.84
2018-11-05T20:19:14.481Z,23.79
2018-11-05T20:20:23.815Z,23.84
2018-11-05T20:21:32.969Z,23.98
2018-11-05T20:22:42.242Z,23.97
2018-11-05T20:23:52.055Z,24.08
2018-11-05T20:25:01.218Z,24.05
2018-11-05T20:26:10.679Z,24.09
2018-11-05T20:27:20.094Z,24.18
2018-11-05T20:28:29.979Z,24.1
2018-11-05T20:29:39.926Z,24.18
2018-11-05T20:30:49.625Z,24.28
2018-11-05T20:32:00.283Z,24.31
2018-11-05T20:33:11.768Z,24.27
2018-11-05T20:34:23.180Z,24.35
2018-11-05T20:35:33.146Z,24.34
2018-11-05T20:36:42.564Z,24.43
2018-11-05T20:37:51.718Z,24.32
2018-11-05T20:39:00.876Z,24.42
2018-11-05T20:40:10.696Z,24.45
2018-11-05T20:41:20.733Z,24.4
2018-11-05T20:42:30.408Z,24.45
2018-11-05T20:43:40.086Z,24.47
2018-11-05T20:44:49.777Z,24.47
2018-11-05T20:45:59.205Z,24.45
2018-11-05T20:47:08.870Z,24.42
2018-11-05T20:48:18.282Z,24.46
2018-11-05T20:49:27.191Z,24.52
2018-11-05T20:50:37.116Z,24.46
2018-11-05T20:51:46.775Z,24.46
2018-11-05T20:52:55.952Z,24.53
2018-11-05T20:54:05.342Z,24.53
2018-11-05T20:55:15.082Z,24.49
2018-11-05T20:56:24.488Z,24.52
2018-11-05T20:57:33.658Z,24.53
2018-11-05T20:58:43.327Z,24.55
2018-11-05T20:59:52.761Z,24.52
2018-11-05T21:01:02.740Z,24.53
2018-11-05T21:02:12.569Z,24.49
2018-11-05T21:03:21.987Z,24.46
2018-11-05T21:04:31.443Z,24.52
2018-11-05T21:05:41.384Z,24.45
2018-11-05T21:06:50.818Z,24.46
2018-11-05T21:07:59.710Z,24.43
2018-11-05T21:09:09.136Z,24.49
2018-11-05T21:10:18.563Z,24.42
2018-11-05T21:11:27.485Z,24.32
2018-11-05T21:12:36.647Z,24.31
2018-11-05T21:13:45.824Z,24.31
2018-11-05T21:14:55.508Z,24.32
2018-11-05T21:16:04.946Z,24.43
2018-11-05T21:17:14.371Z,24.39
2018-11-05T21:18:23.828Z,24.34
2018-11-05T21:19:33.521Z,24.4
2018-11-05T21:20:43.013Z,24.28
2018-11-05T21:21:53.723Z,24.28
2018-11-05T21:23:03.939Z,24.27
2018-11-05T21:24:13.602Z,24.31
2018-11-05T21:25:22.764Z,24.28
2018-11-05T21:26:32.548Z,24.22
2018-11-05T21:27:42.280Z,24.24
2018-11-05T21:28:51.732Z,24.16
2018-11-05T21:30:01.161Z,24.16
2018-11-05T21:31:10.320Z,24.15
2018-11-05T21:32:20.284Z,24.15
2018-11-05T21:33:29.965Z,24.16
2018-11-05T21:34:38.982Z,24.08
2018-11-05T21:35:48.745Z,24.16
2018-11-05T21:36:58.182Z,24.05
2018-11-05T21:38:07.856Z,24.1
2018-11-05T21:39:17.052Z,24.03
2018-11-05T21:40:26.546Z,24.12
2018-11-05T21:41:35.777Z,24.02
2018-11-05T21:42:45.216Z,24.03
2018-11-05T21:43:54.379Z,24.03
2018-11-05T21:45:03.821Z,24.03
2018-11-05T21:46:13.279Z,24.06
2018-11-05T21:47:23.158Z,23.95
2018-11-05T21:48:33.237Z,24.05
2018-11-05T21:49:42.692Z,24.03
2018-11-05T21:50:52.397Z,24.08
2018-11-05T21:52:01.614Z,24.05
2018-11-05T21:53:11.043Z,24.05
2018-11-05T21:54:21.161Z,24.08
2018-11-05T21:55:30.623Z,23.94
2018-11-05T21:56:39.827Z,24
2018-11-05T21:57:49.049Z,24.09
2018-11-05T21:58:58.473Z,23.95
2018-11-05T22:00:08.151Z,24.1
2018-11-05T22:01:17.303Z,24.08
2018-11-05T22:02:26.758Z,24.12
2018-11-05T22:03:36.724Z,24.13
2018-11-05T22:04:46.453Z,24.2
2018-11-05T22:05:56.402Z,24.16
2018-11-05T22:07:06.090Z,24.22
2018-11-05T22:08:15.279Z,24.24
2018-11-05T22:09:24.454Z,24.21
2018-11-05T22:10:33.633Z,24.22
2018-11-05T22:11:42.824Z,24.21
2018-11-05T22:12:52.760Z,24.28
2018-11-05T22:14:02.182Z,24.28
2018-11-05T22:15:11.635Z,24.3
2018-11-05T22:16:20.792Z,24.28
2018-11-05T22:17:29.978Z,24.28
2018-11-05T22:18:39.388Z,24.24
2018-11-05T22:19:48.547Z,24.28
2018-11-05T22:20:57.978Z,24.28
2018-11-05T22:22:07.394Z,24.25
2018-11-05T22:23:16.287Z,24.32
2018-11-05T22:24:25.706Z,24.25
2018-11-05T22:25:35.140Z,24.21
2018-11-05T22:26:45.108Z,24.24
2018-11-05T22:27:54.302Z,24.21
2018-11-05T22:29:03.479Z,24.16
2018-11-05T22:30:13.171Z,24.05
2018-11-05T22:31:22.378Z,24.18
2018-11-05T22:32:31.784Z,24.15
2018-11-05T22:33:41.498Z,24.09
2018-11-05T22:34:50.932Z,24.05
2018-11-05T22:36:00.442Z,23.94
2018-11-05T22:37:10.409Z,24.06
2018-11-05T22:38:20.733Z,24.09
2018-11-05T22:39:30.263Z,24.06
2018-11-05T22:40:40.585Z,23.94
2018-11-05T22:41:50.209Z,23.98
2018-11-05T22:42:58.860Z,24.02
2018-11-05T22:44:08.556Z,23.88
2018-11-05T22:45:17.985Z,23.93
2018-11-05T22:46:27.209Z,23.94
2018-11-05T22:47:36.277Z,23.95
2018-11-05T22:48:45.992Z,23.84
2018-11-05T22:49:55.687Z,23.83
2018-11-05T22:51:04.595Z,23.85
2018-11-05T22:52:13.755Z,23.84
2018-11-05T22:53:23.272Z,23.85
2018-11-05T22:54:32.490Z,23.85
2018-11-05T22:55:41.674Z,23.79
